createdAt,value
2023-01-25T00:02:11.419Z,3.46
2023-01-25T00:04:42.273Z,3.44
2023-01-25T00:07:11.269Z,3.46
2023-01-25T00:09:44.312Z,3.46
2023-01-25T00:12:12.751Z,3.48
2023-01-25T00:14:41.923Z,3.48
2023-01-25T00:17:10.272Z,3.49
2023-01-25T00:19:38.560Z,3.50
2023-01-25T00:22:09.427Z,3.52
2023-01-25T00:24:37.899Z,3.53
2023-01-25T00:27:07.225Z,3.53
2023-01-25T00:29:36.989Z,3.54
2023-01-25T00:32:31.156Z,3.55
2023-01-25T00:35:00.171Z,3.56
2023-01-25T00:37:37.445Z,3.55
2023-01-25T00:40:06.692Z,3.55
2023-01-25T00:42:35.382Z,3.54
2023-01-25T00:45:03.844Z,3.52
2023-01-25T00:47:33.687Z,3.49
2023-01-25T00:50:06.759Z,3.47
2023-01-25T00:52:37.348Z,3.42
2023-01-25T00:55:06.321Z,3.40
2023-01-25T00:57:35.545Z,3.37
2023-01-25T01:00:03.780Z,3.35
2023-01-25T01:02:35.164Z,3.34
2023-01-25T01:05:04.198Z,3.32
2023-01-25T01:07:33.881Z,3.32
2023-01-25T01:10:13.866Z,3.32
2023-01-25T01:12:43.061Z,3.33
2023-01-25T01:15:12.098Z,3.32
2023-01-25T01:17:40.825Z,3.31
2023-01-25T01:20:10.272Z,3.30
2023-01-25T01:22:38.993Z,3.27
2023-01-25T01:25:11.273Z,3.28
2023-01-25T01:27:39.783Z,3.26
2023-01-25T01:30:10.156Z,3.25
2023-01-25T01:32:43.839Z,3.23
2023-01-25T01:35:12.573Z,3.22
2023-01-25T01:37:43.796Z,3.20
2023-01-25T01:40:15.917Z,3.19
2023-01-25T01:43:01.272Z,3.18
2023-01-25T01:45:51.254Z,3.18
2023-01-25T01:48:31.832Z,3.18
2023-01-25T01:51:03.610Z,3.18
2023-01-25T01:53:33.883Z,3.20
2023-01-25T01:56:06.185Z,3.21
2023-01-25T01:58:35.631Z,3.21
2023-01-25T02:01:04.391Z,3.22
2023-01-25T02:03:33.915Z,3.24
2023-01-25T02:06:06.243Z,3.24
2023-01-25T02:08:36.824Z,3.25
2023-01-25T02:11:07.701Z,3.26
2023-01-25T02:13:37.430Z,3.28
2023-01-25T02:16:06.027Z,3.27
2023-01-25T02:18:34.839Z,3.28
2023-01-25T02:21:04.231Z,3.29
2023-01-25T02:23:35.959Z,3.31
2023-01-25T02:26:07.763Z,3.33
2023-01-25T02:28:38.069Z,3.35
2023-01-25T02:31:15.406Z,3.35
2023-01-25T02:33:44.012Z,3.38
2023-01-25T02:36:19.574Z,3.38
2023-01-25T02:38:50.107Z,3.39
2023-01-25T02:41:27.797Z,3.40
2023-01-25T02:43:56.101Z,3.42
2023-01-25T02:46:27.899Z,3.44
2023-01-25T02:48:56.769Z,3.46
2023-01-25T02:51:27.865Z,3.47
2023-01-25T02:53:57.349Z,3.48
2023-01-25T02:56:32.619Z,3.52
2023-01-25T02:59:05.404Z,3.53
2023-01-25T03:01:35.641Z,3.54
2023-01-25T03:04:04.173Z,3.52
2023-01-25T03:06:32.881Z,3.51
2023-01-25T03:09:02.986Z,3.49
2023-01-25T03:11:38.180Z,3.48
2023-01-25T03:14:08.412Z,3.48
2023-01-25T03:16:37.532Z,3.46
2023-01-25T03:19:08.376Z,3.45
2023-01-25T03:21:37.316Z,3.46
2023-01-25T03:24:05.702Z,3.47
2023-01-25T03:26:58.169Z,3.47
2023-01-25T03:29:42.500Z,3.48
2023-01-25T03:32:21.709Z,3.47
2023-01-25T03:34:50.533Z,3.45
2023-01-25T03:37:20.587Z,3.46
2023-01-25T03:39:51.129Z,3.45
2023-01-25T03:42:23.493Z,3.45
2023-01-25T03:44:56.796Z,3.48
2023-01-25T03:47:25.644Z,3.49
2023-01-25T03:49:54.826Z,3.50
2023-01-25T03:52:31.770Z,3.51
2023-01-25T03:55:02.907Z,3.53
2023-01-25T03:57:32.805Z,3.54
2023-01-25T04:00:06.709Z,3.55
2023-01-25T04:02:43.627Z,3.56
2023-01-25T04:05:16.409Z,3.57
2023-01-25T04:07:47.199Z,3.59
2023-01-25T04:10:17.733Z,3.60
2023-01-25T04:12:52.739Z,3.62
2023-01-25T04:15:21.663Z,3.64
2023-01-25T04:17:51.253Z,3.64
2023-01-25T04:20:27.419Z,3.65
2023-01-25T04:22:57.554Z,3.65
2023-01-25T04:25:33.095Z,3.67
2023-01-25T04:28:02.952Z,3.66
2023-01-25T04:30:31.958Z,3.67
2023-01-25T04:33:04.516Z,3.66
2023-01-25T04:35:33.536Z,3.66
2023-01-25T04:38:04.945Z,3.66
2023-01-25T04:40:41.042Z,3.66
2023-01-25T04:43:12.720Z,3.65
2023-01-25T04:45:42.051Z,3.66
2023-01-25T04:48:17.731Z,3.67
2023-01-25T04:50:51.805Z,3.68
2023-01-25T04:53:24.159Z,3.68
2023-01-25T04:55:53.596Z,3.68
2023-01-25T04:58:25.119Z,3.67
2023-01-25T05:00:54.943Z,3.68
2023-01-25T05:03:24.378Z,3.68
2023-01-25T05:05:54.938Z,3.69
2023-01-25T05:08:26.233Z,3.70
2023-01-25T05:11:01.849Z,3.70
2023-01-25T05:13:40.348Z,3.71
2023-01-25T05:16:23.388Z,3.69
2023-01-25T05:18:53.816Z,3.70
2023-01-25T05:21:44.636Z,3.71
2023-01-25T05:24:15.111Z,3.71
2023-01-25T05:27:04.136Z,3.71
2023-01-25T05:29:52.806Z,3.71
2023-01-25T05:32:24.708Z,3.71
2023-01-25T05:35:03.833Z,3.72
2023-01-25T05:37:32.641Z,3.72
2023-01-25T05:40:08.279Z,3.74
2023-01-25T05:42:39.871Z,3.75
2023-01-25T05:45:17.765Z,3.76
2023-01-25T05:47:48.885Z,3.77
2023-01-25T05:50:22.757Z,3.78
2023-01-25T05:53:03.490Z,3.78
2023-01-25T05:55:32.876Z,3.79
2023-01-25T05:58:06.276Z,3.79
2023-01-25T06:00:40.504Z,3.81
2023-01-25T06:03:11.916Z,3.83
2023-01-25T06:05:42.888Z,3.83
2023-01-25T06:08:11.735Z,3.85
2023-01-25T06:10:46.578Z,3.86
2023-01-25T06:13:15.298Z,3.87
2023-01-25T06:15:55.974Z,3.89
2023-01-25T06:18:52.592Z,3.90
2023-01-25T06:21:46.390Z,3.91
2023-01-25T06:24:15.164Z,3.91
2023-01-25T06:26:44.223Z,3.93
2023-01-25T06:29:12.892Z,3.93
2023-01-25T06:31:43.774Z,3.92
2023-01-25T06:34:12.826Z,3.92
2023-01-25T06:36:41.824Z,3.91
2023-01-25T06:39:13.762Z,3.90
2023-01-25T06:41:42.097Z,3.90
2023-01-25T06:44:16.479Z,3.90
2023-01-25T06:46:47.713Z,3.91
2023-01-25T06:49:18.492Z,3.91
2023-01-25T06:51:51.591Z,3.91
2023-01-25T06:54:20.281Z,3.91
2023-01-25T06:56:49.076Z,3.92
2023-01-25T06:59:17.515Z,3.93
2023-01-25T07:01:48.063Z,3.93
2023-01-25T07:04:17.461Z,3.93
2023-01-25T07:06:47.786Z,3.94
2023-01-25T07:09:17.086Z,3.94
2023-01-25T07:11:45.219Z,3.93
2023-01-25T07:14:19.169Z,3.93
2023-01-25T07:16:49.573Z,3.91
2023-01-25T07:19:19.703Z,3.89
2023-01-25T07:21:48.505Z,3.87
2023-01-25T07:24:17.637Z,3.85
2023-01-25T07:26:48.255Z,3.84
2023-01-25T07:29:22.537Z,3.84
2023-01-25T07:31:53.865Z,3.84
2023-01-25T07:34:22.216Z,3.84
2023-01-25T07:36:53.011Z,3.84
2023-01-25T07:39:22.348Z,3.84
2023-01-25T07:41:51.474Z,3.84
2023-01-25T07:44:22.031Z,3.84
2023-01-25T07:46:54.617Z,3.84
2023-01-25T07:49:22.702Z,3.84
2023-01-25T07:51:54.989Z,3.84
2023-01-25T07:54:28.548Z,3.85
2023-01-25T07:56:58.086Z,3.87
2023-01-25T07:59:26.670Z,3.86
2023-01-25T08:01:58.272Z,3.86
2023-01-25T08:04:30.329Z,3.87
2023-01-25T08:06:59.053Z,3.87
2023-01-25T08:09:28.585Z,3.87
2023-01-25T08:11:58.418Z,3.87
2023-01-25T08:14:29.021Z,3.90
2023-01-25T08:17:00.233Z,3.91
2023-01-25T08:19:32.630Z,3.92
2023-01-25T08:22:01.363Z,3.95
2023-01-25T08:24:34.238Z,3.96
2023-01-25T08:27:05.652Z,3.98
2023-01-25T08:29:53.123Z,3.98
2023-01-25T08:32:25.288Z,3.99
2023-01-25T08:34:54.462Z,3.99
2023-01-25T08:37:25.835Z,3.99
2023-01-25T08:39:54.495Z,3.99
2023-01-25T08:42:23.554Z,4.00
2023-01-25T08:44:51.917Z,4.00
2023-01-25T08:47:23.684Z,3.99
2023-01-25T08:50:05.079Z,3.97
2023-01-25T08:52:34.178Z,3.96
2023-01-25T08:55:10.523Z,3.95
2023-01-25T08:57:39.756Z,3.94
2023-01-25T09:00:09.305Z,3.93
2023-01-25T09:02:39.284Z,3.92
2023-01-25T09:05:10.935Z,3.90
2023-01-25T09:07:40.849Z,3.87
2023-01-25T09:10:09.945Z,3.85
2023-01-25T09:12:39.443Z,3.85
2023-01-25T09:15:09.490Z,3.85
2023-01-25T09:17:39.266Z,3.86
2023-01-25T09:20:16.036Z,3.88
2023-01-25T09:22:45.459Z,3.89
2023-01-25T09:25:17.946Z,3.88
2023-01-25T09:27:47.105Z,3.89
2023-01-25T09:30:18.816Z,3.88
2023-01-25T09:32:56.119Z,3.87
2023-01-25T09:35:30.670Z,3.85
2023-01-25T09:37:59.829Z,3.83
2023-01-25T09:40:35.096Z,3.82
2023-01-25T09:43:07.675Z,3.80
2023-01-25T09:45:36.342Z,3.76
2023-01-25T09:48:11.278Z,3.75
2023-01-25T09:50:49.762Z,3.71
2023-01-25T09:53:21.561Z,3.68
2023-01-25T09:55:54.275Z,3.66
2023-01-25T09:58:24.958Z,3.61
2023-01-25T10:00:56.795Z,3.57
2023-01-25T10:03:28.924Z,3.52
2023-01-25T10:06:01.811Z,3.51
2023-01-25T10:08:33.428Z,3.52
2023-01-25T10:11:06.306Z,3.54
2023-01-25T10:13:35.185Z,3.56
2023-01-25T10:16:06.525Z,3.59
2023-01-25T10:18:40.864Z,3.62
2023-01-25T10:21:24.382Z,3.63
2023-01-25T10:24:07.974Z,3.67
2023-01-25T10:26:37.061Z,3.70
2023-01-25T10:29:09.328Z,3.72
2023-01-25T10:31:41.701Z,3.75
2023-01-25T10:34:17.594Z,3.78
2023-01-25T10:36:52.169Z,3.82
2023-01-25T10:39:22.006Z,3.85
2023-01-25T10:41:53.637Z,3.88
2023-01-25T10:44:25.825Z,3.90
2023-01-25T10:47:02.218Z,3.92
2023-01-25T10:49:37.513Z,3.93
2023-01-25T10:52:17.775Z,3.94
2023-01-25T10:57:50.604Z,3.94
2023-01-25T11:00:25.315Z,3.95
2023-01-25T11:02:53.805Z,3.96
2023-01-25T11:05:29.003Z,3.97
2023-01-25T11:07:56.867Z,3.98
2023-01-25T11:10:29.765Z,3.99
2023-01-25T11:13:19.567Z,4.00
2023-01-25T11:15:48.138Z,4.02
2023-01-25T11:18:18.538Z,4.02
2023-01-25T11:20:46.238Z,4.04
2023-01-25T11:23:23.547Z,4.05
2023-01-25T11:25:51.236Z,4.07
2023-01-25T11:28:21.806Z,4.08
2023-01-25T11:30:50.074Z,4.09
2023-01-25T11:33:19.195Z,4.08
2023-01-25T11:35:57.791Z,4.06
2023-01-25T11:38:25.677Z,4.03
2023-01-25T11:40:57.519Z,4.01
2023-01-25T11:43:35.669Z,3.99
2023-01-25T11:46:11.293Z,3.97
2023-01-25T11:48:48.016Z,3.94
2023-01-25T11:51:19.901Z,3.89
2023-01-25T11:53:54.049Z,3.85
2023-01-25T11:56:31.179Z,3.83
2023-01-25T11:59:08.256Z,3.81
2023-01-25T12:01:39.068Z,3.79
2023-01-25T12:04:33.874Z,3.79
2023-01-25T12:07:04.064Z,3.77
2023-01-25T12:09:39.244Z,3.76
2023-01-25T12:12:11.169Z,3.72
2023-01-25T12:14:49.615Z,3.69
2023-01-25T12:17:24.295Z,3.65
2023-01-25T12:19:59.656Z,3.62
2023-01-25T12:22:42.326Z,3.58
2023-01-25T12:25:17.261Z,3.57
2023-01-25T12:27:53.320Z,3.56
2023-01-25T12:30:27.021Z,3.56
2023-01-25T12:33:12.904Z,3.57
2023-01-25T12:35:43.251Z,3.59
2023-01-25T12:38:13.721Z,3.62
2023-01-25T12:40:44.356Z,3.65
2023-01-25T12:43:16.497Z,3.67
2023-01-25T12:45:46.559Z,3.69
2023-01-25T12:48:17.989Z,3.71
2023-01-25T12:50:48.177Z,3.72
2023-01-25T12:53:22.722Z,3.72
2023-01-25T12:55:50.874Z,3.71
2023-01-25T12:58:36.986Z,3.72
2023-01-25T13:01:10.114Z,3.73
2023-01-25T13:03:41.438Z,3.71
2023-01-25T13:06:16.130Z,3.72
2023-01-25T13:08:49.179Z,3.72
2023-01-25T13:11:20.327Z,3.71
2023-01-25T13:13:48.442Z,3.71
2023-01-25T13:16:41.117Z,3.71
2023-01-25T13:19:21.145Z,3.71
2023-01-25T13:21:49.476Z,3.71
2023-01-25T13:24:21.924Z,3.71
2023-01-25T13:26:51.247Z,3.70
2023-01-25T13:29:47.183Z,3.71
2023-01-25T13:32:16.240Z,3.69
2023-01-25T13:35:01.273Z,3.68
2023-01-25T13:37:30.084Z,3.65
2023-01-25T13:40:05.985Z,3.64
2023-01-25T13:42:34.431Z,3.61
2023-01-25T13:45:04.072Z,3.58
2023-01-25T13:47:36.250Z,3.55
2023-01-25T13:50:10.557Z,3.53
2023-01-25T13:52:38.477Z,3.50
2023-01-25T13:55:17.551Z,3.48
2023-01-25T13:57:45.343Z,3.47
2023-01-25T14:00:16.776Z,3.47
2023-01-25T14:02:46.984Z,3.46
2023-01-25T14:05:20.686Z,3.46
2023-01-25T14:07:49.696Z,3.42
2023-01-25T14:10:19.259Z,3.39
2023-01-25T14:12:47.702Z,3.37
2023-01-25T14:15:19.431Z,3.36
2023-01-25T14:17:47.422Z,3.36
2023-01-25T14:20:19.088Z,3.35
2023-01-25T14:22:50.128Z,3.34
2023-01-25T14:25:18.656Z,3.32
2023-01-25T14:27:47.369Z,3.31
2023-01-25T14:30:19.946Z,3.31
2023-01-25T14:32:48.233Z,3.31
2023-01-25T14:35:42.920Z,3.32
2023-01-25T14:38:26.477Z,3.31
2023-01-25T14:40:56.174Z,3.31
2023-01-25T14:43:24.030Z,3.32
2023-01-25T14:45:51.695Z,3.31
2023-01-25T14:48:38.356Z,3.30
2023-01-25T14:51:10.479Z,3.29
2023-01-25T14:53:40.786Z,3.29
2023-01-25T14:56:18.917Z,3.28
2023-01-25T14:58:50.966Z,3.29
2023-01-25T15:01:29.704Z,3.29
2023-01-25T15:03:57.559Z,3.29
2023-01-25T15:06:25.400Z,3.28
2023-01-25T15:08:54.319Z,3.28
2023-01-25T15:11:44.105Z,3.27
2023-01-25T15:14:19.223Z,3.26
2023-01-25T15:16:47.175Z,3.23
2023-01-25T15:19:25.514Z,3.20
2023-01-25T15:21:55.066Z,3.18
2023-01-25T15:24:24.597Z,3.16
2023-01-25T15:26:52.970Z,3.13
2023-01-25T15:29:21.971Z,3.11
2023-01-25T15:31:50.422Z,3.12
2023-01-25T15:34:19.653Z,3.12
2023-01-25T15:36:47.686Z,3.12
2023-01-25T15:39:16.633Z,3.11
2023-01-25T15:41:45.948Z,3.10
2023-01-25T15:44:13.897Z,3.04
2023-01-25T15:46:43.003Z,3.01
2023-01-25T15:49:15.163Z,2.95
2023-01-25T15:51:42.731Z,2.91
2023-01-25T15:54:10.457Z,2.88
2023-01-25T15:56:38.688Z,2.84
2023-01-25T15:59:09.668Z,2.81
2023-01-25T16:01:37.760Z,2.79
2023-01-25T16:04:05.664Z,2.77
2023-01-25T16:06:36.616Z,2.74
2023-01-25T16:09:05.276Z,2.73
2023-01-25T16:11:33.113Z,2.71
2023-01-25T16:14:01.095Z,2.70
2023-01-25T16:16:30.253Z,2.69
2023-01-25T16:18:58.029Z,2.69
2023-01-25T16:21:25.759Z,2.71
2023-01-25T16:23:53.451Z,2.73
2023-01-25T16:26:24.302Z,2.74
2023-01-25T16:28:52.059Z,2.79
2023-01-25T16:31:31.947Z,2.81
2023-01-25T16:34:02.219Z,2.83
2023-01-25T16:36:30.372Z,2.85
2023-01-25T16:39:06.662Z,2.85
2023-01-25T16:41:34.234Z,2.85
2023-01-25T16:44:01.858Z,2.86
2023-01-25T16:46:29.479Z,2.83
2023-01-25T16:48:58.032Z,2.83
2023-01-25T16:51:27.457Z,2.82
2023-01-25T16:53:56.476Z,2.82
2023-01-25T16:56:24.932Z,2.81
2023-01-25T16:58:53.361Z,2.83
2023-01-25T17:01:21.662Z,2.83
2023-01-25T17:03:49.582Z,2.84
2023-01-25T17:06:19.711Z,2.84
2023-01-25T17:08:48.840Z,2.84
2023-01-25T17:11:18.641Z,2.84
2023-01-25T17:13:48.640Z,2.85
2023-01-25T17:16:16.302Z,2.85
2023-01-25T17:18:43.861Z,2.84
2023-01-25T17:21:12.484Z,2.84
2023-01-25T17:23:40.841Z,2.82
2023-01-25T17:26:11.237Z,2.80
2023-01-25T17:28:38.842Z,2.79
2023-01-25T17:31:07.396Z,2.79
2023-01-25T17:33:35.017Z,2.76
2023-01-25T17:36:03.262Z,2.78
2023-01-25T17:38:30.897Z,2.77
2023-01-25T17:41:03.478Z,2.77
2023-01-25T17:43:34.494Z,2.75
2023-01-25T17:46:11.469Z,2.74
2023-01-25T17:48:39.389Z,2.76
2023-01-25T17:51:07.086Z,2.76
2023-01-25T17:53:35.017Z,2.76
2023-01-25T17:56:03.330Z,2.79
2023-01-25T17:58:32.715Z,2.79
2023-01-25T18:01:13.002Z,2.80
2023-01-25T18:03:41.558Z,2.82
2023-01-25T18:06:09.997Z,2.83
2023-01-25T18:08:40.088Z,2.85
2023-01-25T18:11:10.168Z,2.85
2023-01-25T18:13:41.360Z,2.87
2023-01-25T18:16:10.492Z,2.88
2023-01-25T18:18:38.823Z,2.90
2023-01-25T18:21:07.744Z,2.89
2023-01-25T18:23:35.502Z,2.90
2023-01-25T18:26:05.448Z,2.89
2023-01-25T18:28:33.367Z,2.87
2023-01-25T18:31:05.098Z,2.84
2023-01-25T18:33:33.626Z,2.83
2023-01-25T18:36:03.653Z,2.81
2023-01-25T18:38:31.587Z,2.80
2023-01-25T18:40:59.197Z,2.78
2023-01-25T18:43:28.079Z,2.76
2023-01-25T18:45:56.660Z,2.78
2023-01-25T18:48:30.459Z,2.76
2023-01-25T18:50:58.988Z,2.77
2023-01-25T18:53:28.237Z,2.79
2023-01-25T18:55:59.591Z,2.80
2023-01-25T18:58:27.371Z,2.82
2023-01-25T19:01:01.749Z,2.83
2023-01-25T19:03:31.252Z,2.84
2023-01-25T19:05:59.265Z,2.84
2023-01-25T19:08:27.361Z,2.85
2023-01-25T19:10:59.275Z,2.87
2023-01-25T19:13:26.929Z,2.87
2023-01-25T19:16:01.260Z,2.87
2023-01-25T19:18:31.799Z,2.87
2023-01-25T19:20:59.844Z,2.87
2023-01-25T19:23:28.078Z,2.86
2023-01-25T19:25:56.154Z,2.85
2023-01-25T19:28:24.488Z,2.83
2023-01-25T19:30:52.318Z,2.81
2023-01-25T19:33:19.931Z,2.81
2023-01-25T19:35:48.917Z,2.78
2023-01-25T19:38:16.635Z,2.78
2023-01-25T19:40:44.277Z,2.75
2023-01-25T19:43:11.921Z,2.73
2023-01-25T19:45:39.588Z,2.72
2023-01-25T19:48:07.477Z,2.69
2023-01-25T19:50:35.363Z,2.68
2023-01-25T19:53:04.476Z,2.67
2023-01-25T19:55:32.822Z,2.66
2023-01-25T19:58:00.524Z,2.63
2023-01-25T20:00:28.796Z,2.62
2023-01-25T20:03:10.592Z,2.60
2023-01-25T20:05:42.695Z,2.58
2023-01-25T20:08:11.683Z,2.56
2023-01-25T20:10:39.324Z,2.54
2023-01-25T20:13:07.125Z,2.54
2023-01-25T20:15:35.160Z,2.53
2023-01-25T20:18:02.722Z,2.53
2023-01-25T20:20:30.280Z,2.55
2023-01-25T20:22:58.080Z,2.56
2023-01-25T20:25:27.005Z,2.55
2023-01-25T20:27:54.631Z,2.56
2023-01-25T20:30:22.408Z,2.56
2023-01-25T20:32:50.130Z,2.56
2023-01-25T20:35:19.051Z,2.55
2023-01-25T20:37:49.290Z,2.56
2023-01-25T20:40:17.443Z,2.53
2023-01-25T20:42:46.483Z,2.52
2023-01-25T20:45:17.099Z,2.52
2023-01-25T20:47:44.757Z,2.49
2023-01-25T20:50:12.457Z,2.44
2023-01-25T20:52:40.069Z,2.41
2023-01-25T20:55:08.182Z,2.37
2023-01-25T20:57:35.967Z,2.36
2023-01-25T21:00:05.386Z,2.34
2023-01-25T21:02:33.449Z,2.31
2023-01-25T21:05:01.128Z,2.30
2023-01-25T21:07:29.000Z,2.27
2023-01-25T21:09:56.737Z,2.25
2023-01-25T21:12:24.352Z,2.22
2023-01-25T21:14:52.352Z,2.17
2023-01-25T21:17:21.562Z,2.13
2023-01-25T21:19:49.264Z,2.11
2023-01-25T21:22:16.916Z,2.09
2023-01-25T21:24:44.639Z,2.08
2023-01-25T21:27:12.267Z,2.05
2023-01-25T21:29:39.902Z,2.00
2023-01-25T21:32:07.676Z,1.98
2023-01-25T21:34:36.963Z,1.96
2023-01-25T21:37:04.891Z,1.94
2023-01-25T21:39:32.510Z,1.94
2023-01-25T21:42:00.168Z,1.95
2023-01-25T21:44:45.059Z,1.95
2023-01-25T21:47:29.274Z,1.94
2023-01-25T21:50:17.391Z,1.93
2023-01-25T21:52:45.166Z,1.93
2023-01-25T21:55:12.795Z,1.93
2023-01-25T21:57:46.900Z,1.95
2023-01-25T22:00:16.007Z,1.97
2023-01-25T22:02:44.045Z,2.00
2023-01-25T22:05:13.332Z,2.01
2023-01-25T22:07:40.945Z,2.02
2023-01-25T22:10:09.376Z,2.02
2023-01-25T22:12:37.197Z,2.04
2023-01-25T22:15:05.102Z,2.06
2023-01-25T22:17:32.724Z,2.08
2023-01-25T22:20:01.399Z,2.09
2023-01-25T22:22:30.441Z,2.10
2023-01-25T22:24:58.253Z,2.09
2023-01-25T22:27:33.926Z,2.09
2023-01-25T22:30:01.572Z,2.07
2023-01-25T22:32:30.471Z,2.06
2023-01-25T22:34:58.116Z,2.05
2023-01-25T22:37:25.932Z,2.05
2023-01-25T22:39:58.220Z,2.06
2023-01-25T22:42:26.331Z,2.05
2023-01-25T22:44:53.956Z,2.07
2023-01-25T22:47:21.576Z,2.09
2023-01-25T22:49:49.462Z,2.12
2023-01-25T22:52:17.027Z,2.14
2023-01-25T22:54:51.900Z,2.16
2023-01-25T22:57:21.621Z,2.19
2023-01-25T22:59:49.381Z,2.21
2023-01-25T23:02:17.014Z,2.24
2023-01-25T23:04:44.788Z,2.26
2023-01-25T23:07:19.091Z,2.28
2023-01-25T23:09:48.305Z,2.30
2023-01-25T23:12:16.480Z,2.31
2023-01-25T23:14:51.607Z,2.33
2023-01-25T23:17:37.066Z,2.35
2023-01-25T23:20:05.296Z,2.35
2023-01-25T23:22:33.120Z,2.34
2023-01-25T23:25:00.708Z,2.34
2023-01-25T23:27:28.571Z,2.34
2023-01-25T23:29:57.482Z,2.33
2023-01-25T23:32:25.243Z,2.33
2023-01-25T23:34:53.570Z,2.32
2023-01-25T23:37:22.058Z,2.32
2023-01-25T23:39:50.356Z,2.32
2023-01-25T23:42:18.051Z,2.32
2023-01-25T23:44:45.671Z,2.31
2023-01-25T23:47:14.642Z,2.32
2023-01-25T23:49:42.336Z,2.29
2023-01-25T23:52:09.923Z,2.29
2023-01-25T23:54:37.576Z,2.28
2023-01-25T23:57:05.113Z,2.26
2023-01-25T23:59:34.202Z,2.26
